Northeast Iowa Regional Airport
KCCY : now visible

Airfield :











YOU CAN JOIN US ON...

 
LOGIN :

Register | Disclaimer

   EN    FR    IT 

 









Legend :    VFR   Marginal VFR   IFR   Intensive IFR   Very Intensive IFR
Visi :
Ceiling :
>= 8 km
>= 3000ft
5 to 8 km
1000 to 3000 ft
1500m to 5 km
500 to 1000 ft
800 to 1500m
200 to 500 ft
< 800m
< 200 ft
Symbols :   Thunderstorms  Fog  Heavy snow  Heavy precipitations  Wind > 20 kt






- Airport Elevation : 1125 ft


KCCY - Northeast Iowa Regional

CURRENT METAR :
  • 141935Z AUTO 15012G18KT 10SM BKN032 BKN041 BKN050 28/21 A2998 RMK AO2

EXPIRED METARs :
  • 141915Z AUTO 15009G16KT 10SM SCT031 BKN046 27/22 A2998 RMK AO2
  • 141855Z AUTO 16010KT 10SM SCT029 BKN046 28/22 A3000 RMK AO2
  • 141835Z AUTO 15009KT 10SM SCT029 SCT040 SCT046 28/22 A3000 RMK AO2
  • 141815Z AUTO 16010KT 10SM SCT027 SCT031 BKN042 27/22 A3001 RMK AO2
  • 141755Z AUTO 16007G12KT 10SM FEW042 27/22 A3002 RMK AO2
  • 141735Z AUTO 17009KT 10SM FEW024 27/23 A3002 RMK AO2
  • 141715Z AUTO 15007KT 110V200 10SM BKN023 BKN035 BKN041 27/23 A3002 RMK AO2
  • 141655Z AUTO 18006G12KT 10SM BKN021 BKN028 BKN034 26/23 A3002 RMK AO2

TAF N/A
KZMP FIR / North America



MET'MAP, your aeronautical weather chart ! - Copyright ORBIFLY December 2007 - Disclaimer

ORBIFLY MET'MAP TEAM :

Programming & Development : Alexandra Zaïnal
Concept & original design : Baudouin d'Aumeries
Assistance for programming : Marc-Olivier Méhu
Technical & hardware support : Manuel Goepfert

Contact : metmap@orbifly.com




SOURCES & CREDITS :

   NOAA       Earth
Advisory